Taos Ski Valley, NM (87525)

6:36 AM MST on February 07, 2016 (GMT -0700)
Canon | | Change Station
CLOSE
Current Station
Personal Weather Station
Location: Taos, NM
Elevation: 7001 ft
Nearby Weather Stations

Elev 7001 ft 36.39 °N, 105.56 °W | Updated 9 minutes ago

Clear
Clear
7.5 °F
Feels Like 8 °F
N
0.0
Wind Variable Wind from WSW

Today
High -- | Low -- °F
--% Chance of Precip.
Yesterday
High -- | Low -- °F
Precip. -- in
Pressure 30.35 in
Visibility 10.0 miles
Clouds Clear
Windchill 8 °F
Dew Point 6 °F
Humidity 94%
Rainfall 0.00 in
Snow Depth Not available.
6:58 AM 5:34 PM
Waning Crescent, 1% visible
METAR KSKX 071335Z AUTO 02005KT 10SM CLR M14/M17 A3035 RMK AO1
Pressure 30.35 in
Visibility 10.0 miles
Clouds Clear
Windchill 8 °F
Dew Point 6 °F
Humidity 94%
Rainfall 0.00 in
Snow Depth Not available.
6:58 AM 5:34 PM
Waning Crescent, 1% visible
METAR KSKX 071335Z AUTO 02005KT 10SM CLR M14/M17 A3035 RMK AO1

10-Day Weather Forecast

Almanac

Astronomy

Feb. 07, 2016 Rise Set
Actual Time
Civil Twilight
Nautical Twilight
Astronomical Twilight
Moon
Length of Visible Light
Length of Day
Tomorrow will be .
, % of the Moon is Illuminated

Today's Extremes

State Highs State Lows

Community

WunderPhotos

Upload Photos

1,891,190 photos uploaded!

WunderBlog® & News

Nearby

Air Quality

  Air Quality AQ Index Pollutant
Not available.

Snow Depth

Station Depth Elevation

Earthquake Activity

City Distance Mag. Time & Date
Minimum magnitude displayed is 2.5.

Coastal Water Temperatures

Place Temperature

Stations

Nearby Weather Stations

Station Location Temp. Windchill Dew Point Humidity Wind Precip. Elev Updated Type
                   

Watches & Warnings

There are currently no watches in effect.